Time;durP1;ratioP1;P1;durP2;ratioP2;P2;SDS_P1;SDS_P2;PMS_P1;PMS_P2;Temp;Humidity;BMP_temperature;BMP_pressure;BME280_temperature;BME280_humidity;BME280_pressure;Samples;Min_cycle;Max_cycle;Signal;HPM_P1;HPM_P2
2021/05/31 00:02:12;;;;;;;0.00;0.00;;;;;;;;;;5060047;28;20236;-65
2021/05/31 00:04:38;;;;;;;0.00;0.00;;;;;;;;;;5064974;28;20933;-65
2021/05/31 00:07:17;;;;;;;0.50;0.50;;;;;;;;;;5067085;28;20182;-65
2021/05/31 00:09:45;;;;;;;0.00;0.00;;;;;;;;;;5061476;28;20201;-65
2021/05/31 00:12:14;;;;;;;0.13;0.13;;;;;;;;;;5059812;28;20286;-64
2021/05/31 00:14:41;;;;;;;0.30;0.30;;;;;;;;;;5062178;28;20200;-64
2021/05/31 00:17:08;;;;;;;0.10;0.10;;;;;;;;;;5062994;28;20175;-64
2021/05/31 00:19:35;;;;;;;0.43;0.43;;;;;;;;;;5063921;28;20865;-64
2021/05/31 00:22:01;;;;;;;0.10;0.10;;;;;;;;;;5059513;28;20305;-65
2021/05/31 00:24:28;;;;;;;0.27;0.27;;;;;;;;;;5058772;28;20940;-65
2021/05/31 00:26:54;;;;;;;0.27;0.27;;;;;;;;;;5061661;28;20206;-64
2021/05/31 00:29:25;;;;;;;0.03;0.03;;;;;;;;;;5058585;28;20707;-64
2021/05/31 00:31:59;;;;;;;0.00;0.00;;;;;;;;;;5063250;28;20189;-64
2021/05/31 00:34:28;;;;;;;0.00;0.00;;;;;;;;;;5061096;28;20182;-64
2021/05/31 00:37:02;;;;;;;0.00;0.00;;;;;;;;;;5059490;28;20183;-64
2021/05/31 00:39:28;;;;;;;0.00;0.00;;;;;;;;;;5066616;28;20186;-64
2021/05/31 00:41:55;;;;;;;0.30;0.27;;;;;;;;;;5061994;28;20194;-64
2021/05/31 00:44:22;;;;;;;0.00;0.00;;;;;;;;;;5061082;28;20186;-64
2021/05/31 00:46:51;;;;;;;1.27;1.17;;;;;;;;;;5060727;28;20705;-65
2021/05/31 00:49:18;;;;;;;0.10;0.10;;;;;;;;;;5061148;28;20253;-64
2021/05/31 00:51:45;;;;;;;33.50;2.00;;;;;;;;;;5045829;28;20230;-64
2021/05/31 00:54:12;;;;;;;0.00;0.00;;;;;;;;;;5059137;28;20171;-64
2021/05/31 00:56:41;;;;;;;0.00;0.00;;;;;;;;;;5060314;28;20201;-65
2021/05/31 00:59:08;;;;;;;0.07;0.07;;;;;;;;;;5059767;28;20911;-65
2021/05/31 01:01:35;;;;;;;0.73;0.73;;;;;;;;;;5057666;28;21076;-64
2021/05/31 01:04:02;;;;;;;0.63;0.20;;;;;;;;;;5063346;28;20179;-65
2021/05/31 01:06:33;;;;;;;0.00;0.00;;;;;;;;;;5062561;28;20201;-64
2021/05/31 01:09:05;;;;;;;0.00;0.00;;;;;;;;;;5058283;28;20248;-64
2021/05/31 01:11:32;;;;;;;1.00;0.57;;;;;;;;;;5056299;28;20183;-65
2021/05/31 01:14:20;;;;;;;0.00;0.00;;;;;;;;;;5058580;28;20194;-65
2021/05/31 01:16:49;;;;;;;0.10;0.10;;;;;;;;;;5059734;28;20194;-65
2021/05/31 01:19:35;;;;;;;0.20;0.20;;;;;;;;;;5065191;28;20202;-64
2021/05/31 01:22:13;;;;;;;0.00;0.00;;;;;;;;;;5058692;28;20198;-64
2021/05/31 01:24:42;;;;;;;0.00;0.00;;;;;;;;;;5060164;28;20193;-64
2021/05/31 01:27:16;;;;;;;0.00;0.00;;;;;;;;;;5068072;28;20175;-64
2021/05/31 01:29:47;;;;;;;0.10;0.10;;;;;;;;;;5063208;28;20209;-64
2021/05/31 01:32:14;;;;;;;0.00;0.00;;;;;;;;;;5077256;28;20197;-65
2021/05/31 01:34:42;;;;;;;0.10;0.10;;;;;;;;;;5052347;28;20190;-65
2021/05/31 01:37:16;;;;;;;0.00;0.00;;;;;;;;;;5060809;28;20595;-64
2021/05/31 01:39:45;;;;;;;0.00;0.00;;;;;;;;;;5059544;28;20186;-65
2021/05/31 01:42:12;;;;;;;0.00;0.00;;;;;;;;;;5060144;28;20195;-64
2021/05/31 01:44:40;;;;;;;0.03;0.03;;;;;;;;;;5063304;28;20186;-65
2021/05/31 01:47:09;;;;;;;6.77;0.73;;;;;;;;;;5063666;28;20248;-66
2021/05/31 01:49:37;;;;;;;0.00;0.00;;;;;;;;;;5058225;28;20179;-64
2021/05/31 01:52:04;;;;;;;0.23;0.23;;;;;;;;;;5064342;28;20186;-65
2021/05/31 01:54:31;;;;;;;0.53;0.30;;;;;;;;;;5062910;28;20184;-65
2021/05/31 01:56:58;;;;;;;0.00;0.00;;;;;;;;;;5059703;28;20180;-64
2021/05/31 01:59:26;;;;;;;0.00;0.00;;;;;;;;;;5061084;28;20200;-65
2021/05/31 02:01:53;;;;;;;1.50;0.10;;;;;;;;;;5060590;28;20231;-65
2021/05/31 02:04:20;;;;;;;0.00;0.00;;;;;;;;;;5058307;28;20198;-64
2021/05/31 02:06:49;;;;;;;0.00;0.00;;;;;;;;;;5055272;28;20187;-65
2021/05/31 02:09:15;;;;;;;2.00;0.70;;;;;;;;;;5062043;28;20962;-65
2021/05/31 02:11:44;;;;;;;0.37;0.37;;;;;;;;;;5066955;28;20190;-65
2021/05/31 02:14:16;;;;;;;0.00;0.00;;;;;;;;;;5072004;28;20187;-65
2021/05/31 02:16:50;;;;;;;0.00;0.00;;;;;;;;;;5063574;28;20185;-65
2021/05/31 02:19:19;;;;;;;3.27;0.40;;;;;;;;;;5061892;28;20186;-65
2021/05/31 02:21:50;;;;;;;0.10;0.10;;;;;;;;;;5064814;28;20199;-65
2021/05/31 02:24:22;;;;;;;0.00;0.00;;;;;;;;;;5062284;28;20229;-65
2021/05/31 02:26:49;;;;;;;0.00;0.00;;;;;;;;;;5056259;28;20195;-65
2021/05/31 02:29:16;;;;;;;2.23;1.27;;;;;;;;;;5062385;28;20183;-65
2021/05/31 02:31:42;;;;;;;0.67;0.40;;;;;;;;;;5058924;28;20187;-65
2021/05/31 02:34:09;;;;;;;0.10;0.10;;;;;;;;;;5069752;28;20193;-65
2021/05/31 02:36:36;;;;;;;0.00;0.00;;;;;;;;;;5064609;28;20183;-65
2021/05/31 02:39:03;;;;;;;1.03;0.93;;;;;;;;;;5070983;28;20545;-65
2021/05/31 02:41:30;;;;;;;0.00;0.00;;;;;;;;;;5064120;28;20215;-65
2021/05/31 02:43:59;;;;;;;0.07;0.07;;;;;;;;;;5063172;28;20206;-65
2021/05/31 02:46:26;;;;;;;10.40;0.50;;;;;;;;;;5052686;28;20283;-65
2021/05/31 02:48:52;;;;;;;1.20;0.50;;;;;;;;;;5098318;27;20191;-65
2021/05/31 02:51:19;;;;;;;0.67;0.67;;;;;;;;;;5059781;28;20194;-65
2021/05/31 02:53:45;;;;;;;0.00;0.00;;;;;;;;;;5062995;28;20772;-65
2021/05/31 02:56:13;;;;;;;0.53;0.53;;;;;;;;;;5055618;28;20187;-65
2021/05/31 02:58:41;;;;;;;0.40;0.27;;;;;;;;;;5061360;28;20360;-65
2021/05/31 03:01:08;;;;;;;0.00;0.00;;;;;;;;;;5060695;28;20198;-65
2021/05/31 03:03:35;;;;;;;0.00;0.00;;;;;;;;;;5065424;28;20218;-65
2021/05/31 03:06:02;;;;;;;0.37;0.37;;;;;;;;;;5063453;28;20179;-65
2021/05/31 03:08:28;;;;;;;0.00;0.00;;;;;;;;;;5057681;28;20290;-65
2021/05/31 03:10:55;;;;;;;0.00;0.00;;;;;;;;;;5072176;28;20789;-64
2021/05/31 03:13:22;;;;;;;0.10;0.10;;;;;;;;;;5069673;28;20325;-65
2021/05/31 03:15:49;;;;;;;1.50;0.20;;;;;;;;;;5066215;28;20191;-66
2021/05/31 03:18:17;;;;;;;1.50;0.53;;;;;;;;;;5067985;28;20704;-65
2021/05/31 03:20:43;;;;;;;0.73;0.73;;;;;;;;;;5062541;28;20187;-65
2021/05/31 03:23:10;;;;;;;0.00;0.00;;;;;;;;;;5055319;28;20203;-65
2021/05/31 03:25:37;;;;;;;0.60;0.60;;;;;;;;;;5054469;28;20189;-65
2021/05/31 03:28:03;;;;;;;0.50;0.50;;;;;;;;;;5059925;28;20252;-66
2021/05/31 03:30:30;;;;;;;0.00;0.00;;;;;;;;;;5055514;28;20586;-65
2021/05/31 03:32:59;;;;;;;16.67;1.60;;;;;;;;;;5061653;28;20183;-65
2021/05/31 03:35:26;;;;;;;0.00;0.00;;;;;;;;;;5054636;28;20735;-66
2021/05/31 03:37:53;;;;;;;0.00;0.00;;;;;;;;;;5059021;28;20198;-66
2021/05/31 03:40:21;;;;;;;0.00;0.00;;;;;;;;;;5063098;28;20225;-65
2021/05/31 03:42:56;;;;;;;0.50;0.20;;;;;;;;;;5060582;28;20237;-66
2021/05/31 03:45:23;;;;;;;0.00;0.00;;;;;;;;;;5057308;28;20186;-65
2021/05/31 03:47:50;;;;;;;0.00;0.00;;;;;;;;;;5059914;28;20683;-66
2021/05/31 03:50:20;;;;;;;0.00;0.00;;;;;;;;;;5060335;28;20264;-66
2021/05/31 03:52:49;;;;;;;0.00;0.00;;;;;;;;;;5048636;28;20194;-66
2021/05/31 03:55:15;;;;;;;0.23;0.20;;;;;;;;;;5060950;28;21098;-66
2021/05/31 03:57:42;;;;;;;0.00;0.00;;;;;;;;;;5059172;28;20194;-66
2021/05/31 04:00:10;;;;;;;0.00;0.00;;;;;;;;;;5044190;28;20190;-66
2021/05/31 04:02:41;;;;;;;0.00;0.00;;;;;;;;;;5050279;28;20238;-66
2021/05/31 04:05:09;;;;;;;0.00;0.00;;;;;;;;;;5061882;28;20198;-65
2021/05/31 04:13:09;;;;;;;0.90;0.20;;;;;;;;;;5063392;28;20185;-65
2021/05/31 04:15:35;;;;;;;0.47;0.47;;;;;;;;;;5060713;28;20895;-65
2021/05/31 04:18:02;;;;;;;0.00;0.00;;;;;;;;;;5060598;28;20217;-66
2021/05/31 04:20:29;;;;;;;1.10;1.10;;;;;;;;;;5059282;28;20303;-65
2021/05/31 04:22:56;;;;;;;0.80;0.53;;;;;;;;;;5051118;28;20866;-65
2021/05/31 04:25:23;;;;;;;0.00;0.00;;;;;;;;;;5060710;28;20255;-65
2021/05/31 04:27:50;;;;;;;0.00;0.00;;;;;;;;;;5069749;28;20179;-65
2021/05/31 04:30:17;;;;;;;0.10;0.10;;;;;;;;;;5057597;28;20191;-65
2021/05/31 04:32:44;;;;;;;0.20;0.20;;;;;;;;;;5055603;28;20209;-65
2021/05/31 04:35:11;;;;;;;0.00;0.00;;;;;;;;;;5060174;28;20187;-65
2021/05/31 04:37:37;;;;;;;1.50;1.40;;;;;;;;;;5063751;28;20187;-65
2021/05/31 04:40:05;;;;;;;0.00;0.00;;;;;;;;;;5066233;28;20270;-65
2021/05/31 04:42:31;;;;;;;0.00;0.00;;;;;;;;;;5064250;28;20585;-65
2021/05/31 04:44:58;;;;;;;0.00;0.00;;;;;;;;;;5058053;28;20221;-65
2021/05/31 04:47:25;;;;;;;0.10;0.10;;;;;;;;;;5060882;28;20198;-65
2021/05/31 04:49:52;;;;;;;0.00;0.00;;;;;;;;;;5063486;28;20183;-65
2021/05/31 04:52:19;;;;;;;0.40;0.30;;;;;;;;;;5060417;28;20194;-65
2021/05/31 04:54:47;;;;;;;0.00;0.00;;;;;;;;;;5062481;28;20278;-65
2021/05/31 04:57:14;;;;;;;1.33;0.40;;;;;;;;;;5063990;28;20198;-65
2021/05/31 04:59:41;;;;;;;0.00;0.00;;;;;;;;;;5059900;28;20282;-65
2021/05/31 05:02:07;;;;;;;0.00;0.00;;;;;;;;;;5061584;28;20230;-65
2021/05/31 05:04:34;;;;;;;0.43;0.43;;;;;;;;;;5059816;28;20197;-65
2021/05/31 05:07:00;;;;;;;0.00;0.00;;;;;;;;;;5062858;28;20183;-65
2021/05/31 05:09:27;;;;;;;0.00;0.00;;;;;;;;;;5062696;28;20198;-65
2021/05/31 05:11:53;;;;;;;0.00;0.00;;;;;;;;;;5061834;28;20178;-66
2021/05/31 05:14:20;;;;;;;0.23;0.10;;;;;;;;;;5059883;28;20202;-65
2021/05/31 05:16:47;;;;;;;0.17;0.17;;;;;;;;;;5060364;28;20190;-66
2021/05/31 05:19:13;;;;;;;0.00;0.00;;;;;;;;;;5059724;28;20697;-65
2021/05/31 05:21:41;;;;;;;0.00;0.00;;;;;;;;;;5059833;28;20256;-66
2021/05/31 05:24:08;;;;;;;1.50;0.10;;;;;;;;;;5060963;28;20214;-65
2021/05/31 05:26:34;;;;;;;0.47;0.47;;;;;;;;;;5058778;28;20652;-66
2021/05/31 05:29:01;;;;;;;0.00;0.00;;;;;;;;;;5061019;28;20180;-65
2021/05/31 05:31:28;;;;;;;2.97;0.60;;;;;;;;;;5061325;28;20190;-66
2021/05/31 05:33:55;;;;;;;2.67;2.57;;;;;;;;;;5061134;28;20186;-66
2021/05/31 05:36:32;;;;;;;0.83;0.83;;;;;;;;;;5058954;28;20253;-65
2021/05/31 05:41:55;;;;;;;22.47;0.73;;;;;;;;;;5056755;28;20202;-65
2021/05/31 05:49:49;;;;;;;0.10;0.10;;;;;;;;;;5062519;28;20758;-65
2021/05/31 05:52:16;;;;;;;1.57;0.67;;;;;;;;;;5064036;28;20175;-66
2021/05/31 14:07:40;;;;;;;0.00;0.00;;;;;;;;;;5077260;28;20579;-66
2021/05/31 14:10:08;;;;;;;0.10;0.10;;;;;;;;;;5075586;28;20251;-66
2021/05/31 14:12:34;;;;;;;0.00;0.00;;;;;;;;;;5075943;28;20185;-66
2021/05/31 14:15:01;;;;;;;2.00;0.40;;;;;;;;;;5075902;28;20176;-66
2021/05/31 14:17:28;;;;;;;0.23;0.23;;;;;;;;;;5082657;28;20199;-64
2021/05/31 14:19:54;;;;;;;0.00;0.00;;;;;;;;;;5076027;28;20816;-64
2021/05/31 14:22:21;;;;;;;4.90;0.50;;;;;;;;;;5076913;28;20263;-65
2021/05/31 14:24:47;;;;;;;4.70;0.53;;;;;;;;;;5077067;28;20186;-64
2021/05/31 14:27:17;;;;;;;0.00;0.00;;;;;;;;;;5076604;28;20279;-65
2021/05/31 14:29:44;;;;;;;0.10;0.00;;;;;;;;;;5075636;28;20640;-67
2021/05/31 14:32:11;;;;;;;0.30;0.10;;;;;;;;;;5076640;28;20192;-63
2021/05/31 14:34:38;;;;;;;1.43;0.20;;;;;;;;;;5075516;28;20202;-65
2021/05/31 14:37:06;;;;;;;0.10;0.10;;;;;;;;;;5075804;28;20206;-65
2021/05/31 14:39:33;;;;;;;1.27;0.40;;;;;;;;;;5078656;28;20644;-66
2021/05/31 14:42:00;;;;;;;0.00;0.00;;;;;;;;;;5075783;28;20815;-67
2021/05/31 14:44:27;;;;;;;0.20;0.20;;;;;;;;;;5079790;28;20212;-67
2021/05/31 14:46:53;;;;;;;0.00;0.00;;;;;;;;;;5080065;28;20232;-66
2021/05/31 14:49:21;;;;;;;0.30;0.20;;;;;;;;;;5075206;28;20177;-67
2021/05/31 14:51:48;;;;;;;0.20;0.20;;;;;;;;;;5072523;28;20745;-64
2021/05/31 14:54:15;;;;;;;0.40;0.40;;;;;;;;;;5081973;28;20201;-66
2021/05/31 14:56:41;;;;;;;0.10;0.10;;;;;;;;;;5081623;28;20216;-64
2021/05/31 14:59:08;;;;;;;0.97;0.13;;;;;;;;;;5081051;28;20545;-67
2021/05/31 15:01:35;;;;;;;0.00;0.00;;;;;;;;;;5078343;28;20189;-66
2021/05/31 15:04:01;;;;;;;0.03;0.03;;;;;;;;;;5076383;28;20243;-66
2021/05/31 15:06:28;;;;;;;0.00;0.00;;;;;;;;;;5075682;28;20846;-66
2021/05/31 15:08:54;;;;;;;0.00;0.00;;;;;;;;;;5076082;28;20358;-66
2021/05/31 15:11:21;;;;;;;1.60;0.00;;;;;;;;;;5081762;28;20182;-66
2021/05/31 15:13:47;;;;;;;0.00;0.00;;;;;;;;;;5076417;28;20189;-67
2021/05/31 15:16:14;;;;;;;2.37;0.13;;;;;;;;;;5075484;28;20183;-66
2021/05/31 15:18:41;;;;;;;0.00;0.00;;;;;;;;;;5062459;28;20209;-67
2021/05/31 15:21:07;;;;;;;0.10;0.10;;;;;;;;;;5066531;28;20257;-67
2021/05/31 15:23:34;;;;;;;0.53;0.53;;;;;;;;;;5062230;28;20267;-66
2021/05/31 15:26:01;;;;;;;0.00;0.00;;;;;;;;;;5061637;28;20770;-66
2021/05/31 15:28:27;;;;;;;0.20;0.10;;;;;;;;;;5061524;28;20179;-67
2021/05/31 15:30:54;;;;;;;1.90;0.60;;;;;;;;;;5061372;28;21111;-67
2021/05/31 15:33:21;;;;;;;0.23;0.23;;;;;;;;;;5061614;28;20700;-67
2021/05/31 15:35:48;;;;;;;0.87;0.00;;;;;;;;;;5059858;28;20182;-66
2021/05/31 15:38:14;;;;;;;1.40;0.43;;;;;;;;;;5061507;28;20197;-66
2021/05/31 15:40:41;;;;;;;1.70;0.10;;;;;;;;;;5062617;28;20730;-66
2021/05/31 15:43:08;;;;;;;0.10;0.10;;;;;;;;;;5059632;28;20191;-66
2021/05/31 15:45:35;;;;;;;0.00;0.00;;;;;;;;;;5059632;28;20213;-66
2021/05/31 15:48:03;;;;;;;0.87;0.30;;;;;;;;;;5059772;28;20257;-66
2021/05/31 15:50:30;;;;;;;0.00;0.00;;;;;;;;;;5061139;28;21093;-66
2021/05/31 15:52:57;;;;;;;0.00;0.00;;;;;;;;;;5061677;28;21003;-66
2021/05/31 15:55:24;;;;;;;1.13;1.03;;;;;;;;;;5062164;28;20185;-66
2021/05/31 15:57:50;;;;;;;0.10;0.10;;;;;;;;;;5061707;28;20277;-66
2021/05/31 16:00:17;;;;;;;0.00;0.00;;;;;;;;;;5065856;28;20182;-66
2021/05/31 16:02:44;;;;;;;0.67;0.33;;;;;;;;;;5060099;28;20179;-66
2021/05/31 16:05:10;;;;;;;0.33;0.33;;;;;;;;;;5060574;28;20184;-66
2021/05/31 16:07:37;;;;;;;1.03;0.77;;;;;;;;;;5058462;28;20275;-66
2021/05/31 16:10:05;;;;;;;0.10;0.10;;;;;;;;;;5059014;28;20217;-66
2021/05/31 16:12:32;;;;;;;0.17;0.17;;;;;;;;;;5059272;28;20197;-65
2021/05/31 16:14:58;;;;;;;1.20;1.00;;;;;;;;;;5059495;28;20284;-66
2021/05/31 16:17:25;;;;;;;2.20;0.60;;;;;;;;;;5066455;28;20205;-66
2021/05/31 16:19:52;;;;;;;0.20;0.20;;;;;;;;;;5065705;28;20273;-66
2021/05/31 16:22:21;;;;;;;0.90;0.50;;;;;;;;;;5067012;28;20992;-66
2021/05/31 16:25:09;;;;;;;2.33;0.33;;;;;;;;;;5061323;28;20240;-67
2021/05/31 16:27:36;;;;;;;0.83;0.33;;;;;;;;;;5064046;28;20863;-66
2021/05/31 16:30:03;;;;;;;1.00;0.53;;;;;;;;;;5062117;28;20193;-67
2021/05/31 16:32:30;;;;;;;1.40;0.47;;;;;;;;;;5061084;28;20197;-67
2021/05/31 16:34:57;;;;;;;0.70;0.40;;;;;;;;;;5061364;28;20194;-67
2021/05/31 16:37:23;;;;;;;0.30;0.13;;;;;;;;;;5059949;28;20874;-67
2021/05/31 16:39:50;;;;;;;0.00;0.00;;;;;;;;;;5059497;28;20194;-66
2021/05/31 16:42:17;;;;;;;1.83;1.60;;;;;;;;;;5060663;28;20185;-66
2021/05/31 16:44:43;;;;;;;1.53;0.73;;;;;;;;;;5067395;28;20279;-66
2021/05/31 16:47:11;;;;;;;1.80;0.10;;;;;;;;;;5060580;28;20214;-66
2021/05/31 16:49:38;;;;;;;2.60;0.40;;;;;;;;;;5062479;28;20202;-67
2021/05/31 16:52:05;;;;;;;0.83;0.83;;;;;;;;;;5062805;28;20187;-67
2021/05/31 16:54:32;;;;;;;1.27;0.83;;;;;;;;;;5059622;28;20759;-66
2021/05/31 16:56:59;;;;;;;1.43;0.27;;;;;;;;;;5054156;28;21031;-66
2021/05/31 16:59:25;;;;;;;0.87;0.53;;;;;;;;;;5057312;28;20209;-67
2021/05/31 17:01:53;;;;;;;0.27;0.27;;;;;;;;;;5063268;28;20217;-67
2021/05/31 17:04:20;;;;;;;1.83;0.50;;;;;;;;;;5061322;28;20185;-67
2021/05/31 17:06:47;;;;;;;5.93;1.20;;;;;;;;;;5059329;28;20266;-70
2021/05/31 17:09:15;;;;;;;3.10;1.17;;;;;;;;;;5039903;28;20883;-69
2021/05/31 17:19:54;;;;;;;1.23;0.43;;;;;;;;;;5057924;28;20639;-69
2021/05/31 17:22:20;;;;;;;0.43;0.40;;;;;;;;;;5058630;28;20276;-66
2021/05/31 17:24:47;;;;;;;0.00;0.00;;;;;;;;;;5058306;28;20213;-66
2021/05/31 17:27:15;;;;;;;0.00;0.00;;;;;;;;;;5058453;28;20212;-67
2021/05/31 17:29:44;;;;;;;0.47;0.30;;;;;;;;;;5058483;28;20198;-63
2021/05/31 17:32:29;;;;;;;0.40;0.20;;;;;;;;;;5059826;28;20202;-63
2021/05/31 17:34:57;;;;;;;0.87;0.67;;;;;;;;;;5053774;28;20183;-63
2021/05/31 17:37:24;;;;;;;0.20;0.17;;;;;;;;;;5057669;28;20219;-63
2021/05/31 17:39:53;;;;;;;9.43;1.10;;;;;;;;;;5058075;28;20205;-63
2021/05/31 17:42:20;;;;;;;0.03;0.03;;;;;;;;;;5057392;28;20293;-63
2021/05/31 17:44:46;;;;;;;3.70;0.70;;;;;;;;;;5058555;28;20286;-63
2021/05/31 17:47:13;;;;;;;7.33;1.70;;;;;;;;;;5057419;28;20210;-63
2021/05/31 17:49:39;;;;;;;3.17;1.30;;;;;;;;;;5059773;28;20190;-64
2021/05/31 17:52:06;;;;;;;0.93;0.10;;;;;;;;;;5060757;28;20221;-64
2021/05/31 17:54:33;;;;;;;0.27;0.20;;;;;;;;;;5057264;28;20185;-65
2021/05/31 17:57:00;;;;;;;8.47;0.53;;;;;;;;;;5058232;28;20183;-64
2021/05/31 17:59:27;;;;;;;2.37;1.13;;;;;;;;;;5059431;28;20299;-65
2021/05/31 18:01:54;;;;;;;3.57;3.37;;;;;;;;;;5060066;28;20226;-64
2021/05/31 18:04:22;;;;;;;0.40;0.40;;;;;;;;;;5057667;28;20191;-65
2021/05/31 18:06:48;;;;;;;10.83;1.77;;;;;;;;;;5053942;28;20233;-64
2021/05/31 18:09:15;;;;;;;1.50;0.60;;;;;;;;;;5060619;28;20177;-65
2021/05/31 18:11:42;;;;;;;0.00;0.00;;;;;;;;;;5059997;28;20186;-65
2021/05/31 18:14:08;;;;;;;0.13;0.13;;;;;;;;;;5059443;28;20187;-65
2021/05/31 18:16:35;;;;;;;0.80;0.77;;;;;;;;;;5060646;28;20281;-65
2021/05/31 18:19:01;;;;;;;0.13;0.07;;;;;;;;;;5060280;28;20660;-65
2021/05/31 18:21:28;;;;;;;1.50;0.53;;;;;;;;;;5059020;28;20193;-65
2021/05/31 18:23:54;;;;;;;6.40;1.13;;;;;;;;;;5062350;28;20190;-65
2021/05/31 18:26:21;;;;;;;0.00;0.00;;;;;;;;;;5059777;28;20210;-65
2021/05/31 18:28:48;;;;;;;2.07;0.83;;;;;;;;;;5060587;28;20204;-65
2021/05/31 18:31:15;;;;;;;14.23;1.03;;;;;;;;;;5043234;28;20720;-65
2021/05/31 18:33:47;;;;;;;1.10;0.27;;;;;;;;;;5058237;28;20224;-65
2021/05/31 18:36:17;;;;;;;1.77;0.33;;;;;;;;;;5063990;28;20278;-65
2021/05/31 18:38:44;;;;;;;2.73;0.53;;;;;;;;;;5061763;28;20194;-65
2021/05/31 18:41:11;;;;;;;0.93;0.20;;;;;;;;;;5057270;28;20227;-65
2021/05/31 18:43:38;;;;;;;0.10;0.10;;;;;;;;;;5058608;28;20186;-64
2021/05/31 18:46:05;;;;;;;2.23;0.40;;;;;;;;;;5059526;28;20205;-64
2021/05/31 18:48:32;;;;;;;0.00;0.00;;;;;;;;;;5058031;28;20779;-64
2021/05/31 18:51:03;;;;;;;0.10;0.10;;;;;;;;;;5059200;28;20190;-65
2021/05/31 18:53:30;;;;;;;1.40;1.33;;;;;;;;;;5060242;28;20259;-65
2021/05/31 18:55:57;;;;;;;0.10;0.10;;;;;;;;;;5063447;28;20197;-65
2021/05/31 18:58:23;;;;;;;0.00;0.00;;;;;;;;;;5061553;28;20214;-65
2021/05/31 19:00:51;;;;;;;1.60;1.03;;;;;;;;;;5061005;28;20183;-66
2021/05/31 19:03:18;;;;;;;0.20;0.20;;;;;;;;;;5047846;28;20186;-67
2021/05/31 19:05:45;;;;;;;0.77;0.73;;;;;;;;;;5061260;28;20238;-67
2021/05/31 19:08:11;;;;;;;0.60;0.47;;;;;;;;;;5061209;28;20189;-67
2021/05/31 19:10:38;;;;;;;0.00;0.00;;;;;;;;;;5061699;28;20670;-67
2021/05/31 19:13:06;;;;;;;0.00;0.00;;;;;;;;;;5065095;28;20196;-67
2021/05/31 19:15:33;;;;;;;44.20;1.50;;;;;;;;;;5059477;28;20195;-67
2021/05/31 19:18:00;;;;;;;0.77;0.77;;;;;;;;;;5059785;28;20974;-67
2021/05/31 19:20:26;;;;;;;0.20;0.10;;;;;;;;;;5060621;28;20196;-66
2021/05/31 19:22:53;;;;;;;0.67;0.40;;;;;;;;;;5062014;28;20796;-66
2021/05/31 19:25:19;;;;;;;3.00;0.47;;;;;;;;;;5060968;28;20190;-65
2021/05/31 19:27:46;;;;;;;4.23;0.87;;;;;;;;;;5063311;28;20653;-69
2021/05/31 19:30:15;;;;;;;1.80;1.20;;;;;;;;;;5061420;28;20222;-66
2021/05/31 19:32:42;;;;;;;0.67;0.10;;;;;;;;;;5062433;28;20175;-67
2021/05/31 19:35:09;;;;;;;0.30;0.30;;;;;;;;;;5061889;28;20583;-67
2021/05/31 19:37:36;;;;;;;0.10;0.10;;;;;;;;;;5061751;28;20197;-66
2021/05/31 19:40:03;;;;;;;0.00;0.00;;;;;;;;;;5062993;28;20186;-67
2021/05/31 19:42:30;;;;;;;1.57;0.30;;;;;;;;;;5060409;28;21244;-68
2021/05/31 19:44:57;;;;;;;0.20;0.20;;;;;;;;;;5062531;28;20223;-67
2021/05/31 19:47:24;;;;;;;0.03;0.03;;;;;;;;;;5062775;28;20293;-67
2021/05/31 19:49:51;;;;;;;0.10;0.10;;;;;;;;;;5068610;28;20205;-64
2021/05/31 19:52:17;;;;;;;1.20;0.20;;;;;;;;;;5064866;28;20268;-66
2021/05/31 19:59:50;;;;;;;2.87;0.77;;;;;;;;;;5061855;28;20217;-68
2021/05/31 20:02:29;;;;;;;0.00;0.00;;;;;;;;;;5060943;28;20186;-68
2021/05/31 20:04:56;;;;;;;0.30;0.20;;;;;;;;;;5056782;28;20267;-67
2021/05/31 20:10:00;;;;;;;0.67;0.67;;;;;;;;;;5060297;28;20244;-68
2021/05/31 20:12:27;;;;;;;0.27;0.23;;;;;;;;;;5056914;28;20184;-69
2021/05/31 20:14:54;;;;;;;2.93;1.33;;;;;;;;;;5064076;28;20185;-69
2021/05/31 20:17:21;;;;;;;0.10;0.10;;;;;;;;;;5076373;28;20492;-67
2021/05/31 20:19:48;;;;;;;2.33;0.60;;;;;;;;;;5060597;28;20190;-68
2021/05/31 20:22:15;;;;;;;1.77;0.30;;;;;;;;;;5058546;28;20190;-67
2021/05/31 20:24:49;;;;;;;0.27;0.27;;;;;;;;;;5060253;28;20260;-67
2021/05/31 20:27:16;;;;;;;0.10;0.10;;;;;;;;;;5063670;28;20279;-68
2021/05/31 20:29:43;;;;;;;0.93;0.63;;;;;;;;;;5061283;28;20210;-68
2021/05/31 20:32:10;;;;;;;1.87;0.47;;;;;;;;;;5060865;28;20220;-68
2021/05/31 20:34:39;;;;;;;0.07;0.07;;;;;;;;;;5064409;28;20181;-68
2021/05/31 20:37:07;;;;;;;1.03;0.93;;;;;;;;;;5065460;28;20205;-68
2021/05/31 20:39:33;;;;;;;0.73;0.37;;;;;;;;;;5056790;28;20193;-69
2021/05/31 20:42:00;;;;;;;0.00;0.00;;;;;;;;;;5064848;28;20192;-68
2021/05/31 20:44:27;;;;;;;4.07;0.70;;;;;;;;;;5057502;28;22055;-68
2021/05/31 20:46:54;;;;;;;0.00;0.00;;;;;;;;;;5059989;28;20206;-68
2021/05/31 20:49:20;;;;;;;19.63;3.37;;;;;;;;;;5061132;28;20186;-67
2021/05/31 20:51:47;;;;;;;0.27;0.20;;;;;;;;;;5059444;28;20639;-68
2021/05/31 20:54:14;;;;;;;0.00;0.00;;;;;;;;;;5059868;28;20181;-68
2021/05/31 20:56:40;;;;;;;0.30;0.30;;;;;;;;;;5058193;28;20187;-68
2021/05/31 20:59:07;;;;;;;1.20;0.20;;;;;;;;;;5059410;28;20187;-68
2021/05/31 21:01:33;;;;;;;0.10;0.10;;;;;;;;;;5057635;28;20256;-68
2021/05/31 21:04:02;;;;;;;0.00;0.00;;;;;;;;;;5059279;28;20191;-68
2021/05/31 21:06:28;;;;;;;3.03;0.40;;;;;;;;;;5057448;28;20241;-68
2021/05/31 21:08:58;;;;;;;2.10;1.90;;;;;;;;;;5059452;28;20190;-68
2021/05/31 21:11:58;;;;;;;1.40;0.30;;;;;;;;;;5058906;28;20198;-68
2021/05/31 21:14:19;;;;;;;0.00;0.00;;;;;;;;;;5051312;28;20187;-68
2021/05/31 21:16:46;;;;;;;0.03;0.03;;;;;;;;;;5058323;28;20187;-69
2021/05/31 21:19:13;;;;;;;0.83;0.83;;;;;;;;;;5056131;28;20183;-68
2021/05/31 21:21:39;;;;;;;1.10;0.00;;;;;;;;;;5059452;28;21020;-68
2021/05/31 21:24:06;;;;;;;0.17;0.07;;;;;;;;;;5059861;28;20205;-68
2021/05/31 21:26:33;;;;;;;0.33;0.10;;;;;;;;;;5058260;28;20212;-67
2021/05/31 21:29:00;;;;;;;0.00;0.00;;;;;;;;;;5060578;28;20214;-68
2021/05/31 21:31:26;;;;;;;0.07;0.07;;;;;;;;;;5059131;28;20184;-67
2021/05/31 21:33:53;;;;;;;0.77;0.07;;;;;;;;;;5063754;28;20174;-67
2021/05/31 21:36:21;;;;;;;0.67;0.67;;;;;;;;;;5059150;28;20191;-68
2021/05/31 21:38:48;;;;;;;1.50;0.87;;;;;;;;;;5059441;28;20214;-68
2021/05/31 21:41:14;;;;;;;1.90;0.27;;;;;;;;;;5061507;28;20194;-68
2021/05/31 21:43:41;;;;;;;6.93;1.10;;;;;;;;;;5058319;28;20183;-69
2021/05/31 21:46:07;;;;;;;1.07;0.73;;;;;;;;;;5058081;28;20194;-68
2021/05/31 21:48:34;;;;;;;0.00;0.00;;;;;;;;;;5057949;28;20178;-68
2021/05/31 21:51:01;;;;;;;0.00;0.00;;;;;;;;;;5057622;28;20184;-68
2021/05/31 21:53:27;;;;;;;0.53;0.40;;;;;;;;;;5056007;28;20183;-68
2021/05/31 21:55:54;;;;;;;0.80;0.17;;;;;;;;;;5062363;28;20227;-68
2021/05/31 21:58:20;;;;;;;7.00;0.87;;;;;;;;;;5064832;28;20187;-68
2021/05/31 22:00:49;;;;;;;4.63;0.60;;;;;;;;;;5058796;28;20187;-72
2021/05/31 22:03:16;;;;;;;0.03;0.03;;;;;;;;;;5058712;28;20300;-68
2021/05/31 22:05:44;;;;;;;0.87;0.83;;;;;;;;;;5043906;28;20738;-68
2021/05/31 22:08:11;;;;;;;31.00;4.73;;;;;;;;;;5059917;28;20193;-67
2021/05/31 22:10:39;;;;;;;6.97;1.80;;;;;;;;;;5060276;28;20193;-68
2021/05/31 22:13:09;;;;;;;0.53;0.30;;;;;;;;;;5057068;28;20208;-67
2021/05/31 22:16:55;;;;;;;0.00;0.00;;;;;;;;;;5057776;28;20182;-68
2021/05/31 22:18:25;;;;;;;0.00;0.00;;;;;;;;;;5065462;28;21020;-68
2021/05/31 22:20:52;;;;;;;0.00;0.00;;;;;;;;;;5062478;28;20205;-68
2021/05/31 22:23:26;;;;;;;3.53;0.67;;;;;;;;;;5057343;28;20600;-67
2021/05/31 22:25:55;;;;;;;0.50;0.50;;;;;;;;;;5057351;28;20203;-68
2021/05/31 22:31:09;;;;;;;1.13;0.30;;;;;;;;;;5061787;28;20181;-68
2021/05/31 22:33:36;;;;;;;0.00;0.00;;;;;;;;;;5065326;28;20179;-68
2021/05/31 22:36:03;;;;;;;0.00;0.00;;;;;;;;;;5063161;28;20197;-68
2021/05/31 22:57:16;;;;;;;0.00;0.00;;;;;;;;;;5039582;28;20201;-68
2021/05/31 23:05:16;;;;;;;1.83;0.50;;;;;;;;;;5040243;28;20207;-68
2021/05/31 23:13:22;;;;;;;0.00;0.00;;;;;;;;;;5033338;28;20191;-60
2021/05/31 23:15:49;;;;;;;0.00;0.00;;;;;;;;;;5041274;28;20188;-60
2021/05/31 23:18:15;;;;;;;0.00;0.00;;;;;;;;;;5039867;28;20287;-60
2021/05/31 23:20:42;;;;;;;1.30;0.40;;;;;;;;;;5040179;28;20245;-60
2021/05/31 23:23:08;;;;;;;0.00;0.00;;;;;;;;;;5020774;28;20582;-60
2021/05/31 23:25:35;;;;;;;0.00;0.00;;;;;;;;;;5040453;28;20187;-60
2021/05/31 23:28:02;;;;;;;1.10;0.30;;;;;;;;;;5039689;28;20215;-59
2021/05/31 23:30:28;;;;;;;0.60;0.30;;;;;;;;;;5040117;28;20191;-60
2021/05/31 23:32:55;;;;;;;0.03;0.03;;;;;;;;;;5037391;28;20959;-60
2021/05/31 23:35:21;;;;;;;0.77;0.10;;;;;;;;;;5036932;28;20230;-59
2021/05/31 23:37:52;;;;;;;0.30;0.30;;;;;;;;;;5042229;28;20225;-60
2021/05/31 23:40:21;;;;;;;0.83;0.17;;;;;;;;;;5045523;28;20245;-60
2021/05/31 23:42:48;;;;;;;1.27;1.17;;;;;;;;;;5038968;28;20187;-59
2021/05/31 23:45:16;;;;;;;0.30;0.20;;;;;;;;;;5043349;28;20194;-60
2021/05/31 23:47:42;;;;;;;0.23;0.23;;;;;;;;;;5042607;28;20208;-60
2021/05/31 23:50:09;;;;;;;1.17;0.43;;;;;;;;;;5043136;28;20176;-59
2021/05/31 23:52:36;;;;;;;0.10;0.10;;;;;;;;;;5044665;28;20270;-59
2021/05/31 23:55:03;;;;;;;0.10;0.10;;;;;;;;;;5041433;28;20183;-59
2021/05/31 23:57:30;;;;;;;0.00;0.00;;;;;;;;;;5039912;28;20222;-58
2021/05/31 23:59:56;;;;;;;1.50;0.10;;;;;;;;;;5042114;28;20201;-58
